Pagina principale
METAR-TAF:

METAR-TAF

Aeroporti :

Aeroporto di Catania-Fontanarossa

Catania, Italia

latitudine: 37-28N, longitudine: 015-03E, altezza: 11 m

Osservazione

Il bollettino è stato emesso 16 minuti fa, alle 12:20 UTC
Vento 16 kt da est
Temperature 24°C
Umidità 50%
Pressione 1023 hPa
Visibilità 10 km o più
Poco nuvoloso ad un'altezza di 7000 ft

METAR: LICC 191220Z 08016KT 9999 FEW070 24/13 Q1023

Ora: 14:36 (12:36 UTC)

Previsione

Il bollettino è stato emesso 1 ora e 36 minuti fa, alle 11:00 UTC
Previsione valida dal 19 alle 12 UTC al 20 alle 12 UTC
Vento 13 kt da est/nord-est
Visibilità 10 km o più
Poco nuvoloso ad un'altezza di 3000 ft
Evoluzione graduale
dal 19 alle 18 UTC al 19 alle 20 UTC
Vento 5 kt da direzioni variabili
Evoluzione graduale
dal 20 alle 10 UTC al 20 alle 12 UTC
Vento 10 kt da est/sud-est

TAF: LICC 191100Z 1912/2012 07013KT 9999 FEW030 BECMG 1918/1920 VRB05KT BECMG 2010/2012 11010KT

Osservazioni e previsioni meteorologiche di più di 4000 aeroporti (messaggi METAR e TAF).

Le stazioni disponibili sono rappresentate dai dischi gialli e rossi sulla carta.

Puntare il mouse per vedere il nome della stazione.

Clicca sopra per visualizzare le osservazioni e previsioni meteorologiche.

Per cambiare la mappa : fare clic sui pulsanti verdi con una croce nera per ingrandire, il pulsante verde con un trattino per diminuire, o sulla freccia verde per le mappe adiacenti.


METAR-TAF: